createdAt,value
2022-08-17T00:00:51.642Z,0.00
2022-08-17T00:01:51.776Z,0.00
2022-08-17T00:02:45.106Z,0.00
2022-08-17T00:03:45.098Z,0.00
2022-08-17T00:04:50.353Z,0.00
2022-08-17T00:05:45.123Z,0.00
2022-08-17T00:06:45.129Z,0.00
2022-08-17T00:07:45.050Z,0.00
2022-08-17T00:08:45.041Z,0.00
2022-08-17T00:09:45.061Z,0.00
2022-08-17T00:10:45.024Z,0.00
2022-08-17T00:12:34.866Z,0.00
2022-08-17T00:12:56.464Z,0.00
2022-08-17T00:13:44.991Z,0.00
2022-08-17T00:14:44.996Z,0.00
2022-08-17T00:15:44.961Z,0.00
2022-08-17T00:16:56.217Z,0.00
2022-08-17T00:17:44.938Z,0.00
2022-08-17T00:19:02.139Z,0.00
2022-08-17T00:19:44.960Z,0.00
2022-08-17T00:20:44.906Z,0.00
2022-08-17T00:22:30.734Z,0.00
2022-08-17T00:22:44.880Z,0.00
2022-08-17T00:23:49.287Z,0.00
2022-08-17T00:24:44.936Z,0.00
2022-08-17T00:25:44.876Z,0.00
2022-08-17T00:26:45.473Z,0.00
2022-08-17T00:27:44.830Z,0.00
2022-08-17T00:28:45.433Z,0.00
2022-08-17T00:29:44.812Z,0.00
2022-08-17T00:30:52.821Z,0.00
2022-08-17T00:31:44.818Z,0.00
2022-08-17T00:33:11.855Z,0.00
2022-08-17T00:33:44.768Z,0.00
2022-08-17T00:34:44.759Z,0.00
2022-08-17T00:35:44.762Z,0.00
2022-08-17T00:36:44.790Z,0.00
2022-08-17T00:37:44.820Z,0.00
2022-08-17T00:38:44.700Z,0.00
2022-08-17T00:39:44.773Z,0.00
2022-08-17T00:40:45.145Z,0.00
2022-08-17T00:41:44.694Z,0.00
2022-08-17T00:42:44.680Z,0.00
2022-08-17T00:43:44.675Z,0.00
2022-08-17T00:44:44.648Z,0.00
2022-08-17T00:45:44.636Z,0.00
2022-08-17T00:46:44.641Z,0.00
2022-08-17T00:47:44.608Z,0.00
2022-08-17T00:48:44.608Z,0.00
2022-08-17T00:49:44.594Z,0.00
2022-08-17T00:50:44.566Z,0.00
2022-08-17T00:51:44.560Z,0.00
2022-08-17T00:52:44.553Z,0.00
2022-08-17T00:53:44.548Z,0.00
2022-08-17T00:54:44.567Z,0.00
2022-08-17T00:55:44.529Z,0.00
2022-08-17T00:56:45.444Z,0.00
2022-08-17T00:57:44.519Z,0.00
2022-08-17T00:58:44.486Z,0.00
2022-08-17T00:59:44.478Z,0.00
2022-08-17T01:00:44.527Z,0.00
2022-08-17T01:01:44.527Z,0.00
2022-08-17T01:02:44.526Z,0.00
2022-08-17T01:03:44.439Z,0.00
2022-08-17T01:04:44.426Z,0.00
2022-08-17T01:05:44.413Z,0.00
2022-08-17T01:06:44.407Z,0.00
2022-08-17T01:07:44.399Z,0.00
2022-08-17T01:08:44.377Z,0.00
2022-08-17T01:09:44.367Z,0.00
2022-08-17T01:10:58.588Z,0.00
2022-08-17T01:11:44.361Z,0.00
2022-08-17T01:12:44.324Z,0.00
2022-08-17T01:13:44.330Z,0.00
2022-08-17T01:14:44.308Z,0.00
2022-08-17T01:15:46.175Z,0.00
2022-08-17T01:16:44.288Z,0.00
2022-08-17T01:17:44.292Z,0.00
2022-08-17T01:18:44.266Z,0.00
2022-08-17T01:19:44.260Z,0.00
2022-08-17T01:20:48.524Z,0.00
2022-08-17T01:21:44.255Z,0.00
2022-08-17T01:22:44.225Z,0.00
2022-08-17T01:23:44.219Z,0.00
2022-08-17T01:24:44.416Z,0.00
2022-08-17T01:25:44.194Z,0.00
2022-08-17T01:26:44.184Z,0.00
2022-08-17T01:27:44.194Z,0.00
2022-08-17T01:28:54.181Z,0.00
2022-08-17T01:29:44.153Z,0.00
2022-08-17T01:30:57.047Z,0.00
2022-08-17T01:31:44.182Z,0.00
2022-08-17T01:32:44.115Z,0.00
2022-08-17T01:33:44.134Z,0.00
2022-08-17T01:34:50.098Z,0.00
2022-08-17T01:35:44.083Z,0.00
2022-08-17T01:36:44.077Z,0.00
2022-08-17T01:37:44.049Z,0.00
2022-08-17T01:38:44.054Z,0.00
2022-08-17T01:39:44.342Z,0.00
2022-08-17T01:40:44.087Z,0.00
2022-08-17T01:41:44.893Z,0.00
2022-08-17T01:42:44.023Z,0.00
2022-08-17T01:43:44.044Z,0.00
2022-08-17T01:44:43.989Z,0.00
2022-08-17T01:45:43.964Z,0.00
2022-08-17T01:46:43.967Z,0.00
2022-08-17T01:47:43.951Z,0.00
2022-08-17T01:48:43.969Z,0.00
2022-08-17T01:49:43.936Z,0.00
2022-08-17T01:50:43.918Z,0.00
2022-08-17T01:51:43.907Z,0.00
2022-08-17T01:52:43.918Z,0.00
2022-08-17T01:53:43.883Z,0.00
2022-08-17T01:54:43.884Z,0.00
2022-08-17T01:55:43.859Z,0.00
2022-08-17T01:56:43.865Z,0.00
2022-08-17T01:57:43.863Z,0.00
2022-08-17T01:58:43.845Z,0.00
2022-08-17T01:59:43.847Z,0.00
2022-08-17T02:00:51.731Z,0.00
2022-08-17T02:01:43.886Z,0.00
2022-08-17T02:02:43.792Z,0.00
2022-08-17T02:03:53.492Z,0.00
2022-08-17T02:04:43.921Z,0.00
2022-08-17T02:05:43.761Z,0.00
2022-08-17T02:06:52.675Z,0.00
2022-08-17T02:08:00.456Z,0.00
2022-08-17T02:09:03.052Z,0.00
2022-08-17T02:09:43.934Z,0.00
2022-08-17T02:10:46.642Z,0.00
2022-08-17T02:11:43.701Z,0.00
2022-08-17T02:12:43.685Z,0.00
2022-08-17T02:13:43.675Z,0.00
2022-08-17T02:14:43.673Z,0.00
2022-08-17T02:15:43.669Z,0.00
2022-08-17T02:16:43.651Z,0.00
2022-08-17T02:17:43.625Z,0.00
2022-08-17T02:18:43.621Z,0.00
2022-08-17T02:19:43.621Z,0.00
2022-08-17T02:20:43.615Z,0.00
2022-08-17T02:21:43.596Z,0.00
2022-08-17T02:22:43.585Z,0.00
2022-08-17T02:23:43.567Z,0.00
2022-08-17T02:25:00.131Z,0.00
2022-08-17T02:25:43.552Z,0.00
2022-08-17T02:26:43.538Z,0.00
2022-08-17T02:27:43.513Z,0.00
2022-08-17T02:28:43.514Z,0.00
2022-08-17T02:29:43.517Z,0.00
2022-08-17T02:30:59.513Z,0.00
2022-08-17T02:31:43.492Z,0.00
2022-08-17T02:32:43.484Z,0.00
2022-08-17T02:33:43.824Z,0.00
2022-08-17T02:34:43.443Z,0.00
2022-08-17T02:35:43.424Z,0.00
2022-08-17T02:36:43.425Z,0.00
2022-08-17T02:37:43.417Z,0.00
2022-08-17T02:38:43.415Z,0.00
2022-08-17T02:39:43.423Z,0.00
2022-08-17T02:40:43.382Z,0.00
2022-08-17T02:41:43.361Z,0.00
2022-08-17T02:42:43.387Z,0.00
2022-08-17T02:43:43.343Z,0.00
2022-08-17T02:44:43.332Z,0.00
2022-08-17T02:45:43.314Z,0.00
2022-08-17T02:46:43.312Z,0.00
2022-08-17T02:47:43.300Z,0.00
2022-08-17T02:48:43.292Z,0.00
2022-08-17T02:49:47.543Z,0.00
2022-08-17T02:50:43.277Z,0.00
2022-08-17T02:51:43.260Z,0.00
2022-08-17T02:52:44.178Z,0.00
2022-08-17T02:53:43.226Z,0.00
2022-08-17T02:54:43.213Z,0.00
2022-08-17T02:55:43.212Z,0.00
2022-08-17T02:56:43.218Z,0.00
2022-08-17T02:57:43.274Z,0.00
2022-08-17T02:58:43.202Z,0.00
2022-08-17T02:59:48.315Z,0.00
2022-08-17T03:00:43.155Z,0.00
2022-08-17T03:01:43.233Z,0.00
2022-08-17T03:02:43.170Z,0.00
2022-08-17T03:03:43.128Z,0.00
2022-08-17T03:04:43.111Z,0.00
2022-08-17T03:05:43.103Z,0.00
2022-08-17T03:06:43.187Z,0.00
2022-08-17T03:07:43.078Z,0.00
2022-08-17T03:08:43.085Z,0.00
2022-08-17T03:09:43.068Z,0.00
2022-08-17T03:10:43.048Z,0.00
2022-08-17T03:11:43.043Z,0.00
2022-08-17T03:12:43.077Z,0.00
2022-08-17T03:13:43.020Z,0.00
2022-08-17T03:14:43.018Z,0.00
2022-08-17T03:15:44.422Z,0.00
2022-08-17T03:16:43.135Z,0.00
2022-08-17T03:17:42.962Z,0.00
2022-08-17T03:18:42.994Z,0.00
2022-08-17T03:19:43.322Z,0.00
2022-08-17T03:20:42.941Z,0.00
2022-08-17T03:21:42.931Z,0.00
2022-08-17T03:22:42.938Z,0.00
2022-08-17T03:23:42.924Z,0.00
2022-08-17T03:24:42.907Z,0.00
2022-08-17T03:25:43.456Z,0.00
2022-08-17T03:26:42.941Z,0.00
2022-08-17T03:27:42.869Z,4.00
2022-08-17T03:28:42.859Z,4.00
2022-08-17T03:29:42.836Z,0.00
2022-08-17T03:30:42.843Z,0.00
2022-08-17T03:31:42.838Z,4.00
2022-08-17T03:32:42.882Z,0.00
2022-08-17T03:33:42.790Z,4.00
2022-08-17T03:34:42.791Z,4.00
2022-08-17T03:35:42.783Z,4.00
2022-08-17T03:36:42.774Z,8.00
2022-08-17T03:37:42.823Z,4.00
2022-08-17T03:38:42.778Z,8.00
2022-08-17T03:39:42.758Z,8.00
2022-08-17T03:40:56.624Z,8.00
2022-08-17T03:41:42.734Z,12.00
2022-08-17T03:42:42.746Z,12.00
2022-08-17T03:43:42.686Z,12.00
2022-08-17T03:44:42.679Z,12.00
2022-08-17T03:45:42.703Z,16.00
2022-08-17T03:46:42.670Z,16.00
2022-08-17T03:47:42.637Z,16.00
2022-08-17T03:48:42.784Z,20.00
2022-08-17T03:49:42.606Z,20.00
2022-08-17T03:50:42.598Z,24.00
2022-08-17T03:51:42.605Z,28.00
2022-08-17T03:52:43.506Z,32.00
2022-08-17T03:53:42.580Z,32.00
2022-08-17T03:54:42.590Z,32.00
2022-08-17T03:55:42.548Z,40.00
2022-08-17T03:56:42.549Z,40.00
2022-08-17T03:57:42.539Z,44.00
2022-08-17T03:58:42.822Z,44.00
2022-08-17T03:59:42.516Z,52.00
2022-08-17T04:00:42.504Z,56.00
2022-08-17T04:01:42.580Z,60.00
2022-08-17T04:02:42.477Z,64.00
2022-08-17T04:03:42.460Z,64.00
2022-08-17T04:04:42.449Z,68.00
2022-08-17T04:05:42.442Z,76.00
2022-08-17T04:06:42.442Z,80.00
2022-08-17T04:07:42.426Z,80.00
2022-08-17T04:08:42.414Z,88.00
2022-08-17T04:09:42.419Z,92.00
2022-08-17T04:10:45.120Z,100.00
2022-08-17T04:11:42.369Z,100.00
2022-08-17T04:12:42.381Z,104.00
2022-08-17T04:13:42.351Z,108.00
2022-08-17T04:14:53.504Z,108.00
2022-08-17T04:15:42.345Z,116.00
2022-08-17T04:16:42.327Z,120.00
2022-08-17T04:17:42.335Z,120.00
2022-08-17T04:18:42.328Z,124.00
2022-08-17T04:19:42.458Z,132.00
2022-08-17T04:20:42.270Z,136.00
2022-08-17T04:21:42.271Z,140.00
2022-08-17T04:22:42.257Z,148.00
2022-08-17T04:23:42.246Z,152.00
2022-08-17T04:24:42.256Z,160.00
2022-08-17T04:25:42.241Z,168.00
2022-08-17T04:26:53.001Z,168.00
2022-08-17T04:27:42.203Z,176.00
2022-08-17T04:28:42.207Z,180.00
2022-08-17T04:29:54.137Z,184.00
2022-08-17T04:30:42.179Z,184.00
2022-08-17T04:31:42.165Z,188.00
2022-08-17T04:33:04.290Z,192.00
2022-08-17T04:33:42.136Z,196.00
2022-08-17T04:34:42.119Z,200.00
2022-08-17T04:35:42.119Z,204.00
2022-08-17T04:36:42.121Z,204.00
2022-08-17T04:37:42.123Z,208.00
2022-08-17T04:38:42.075Z,212.00
2022-08-17T04:39:42.104Z,216.00
2022-08-17T04:40:42.073Z,216.00
2022-08-17T04:41:43.328Z,224.00
2022-08-17T04:42:42.035Z,228.00
2022-08-17T04:43:42.027Z,228.00
2022-08-17T04:44:42.032Z,236.00
2022-08-17T04:45:55.342Z,236.00
2022-08-17T04:46:42.033Z,240.00
2022-08-17T04:47:41.994Z,244.00
2022-08-17T04:48:41.969Z,244.00
2022-08-17T04:49:41.968Z,252.00
2022-08-17T04:50:41.959Z,252.00
2022-08-17T04:51:47.923Z,252.00
2022-08-17T04:52:43.377Z,260.00
2022-08-17T04:53:41.913Z,264.00
2022-08-17T04:54:41.915Z,264.00
2022-08-17T04:55:41.884Z,268.00
2022-08-17T04:56:41.884Z,276.00
2022-08-17T04:57:45.081Z,280.00
2022-08-17T04:58:41.864Z,284.00
2022-08-17T04:59:41.850Z,284.00
2022-08-17T05:00:41.839Z,292.00
2022-08-17T05:01:41.868Z,296.00
2022-08-17T05:02:49.634Z,296.00
2022-08-17T05:03:41.843Z,304.00
2022-08-17T05:04:41.824Z,304.00
2022-08-17T05:05:41.788Z,304.00
2022-08-17T05:06:41.771Z,308.00
2022-08-17T05:07:41.769Z,312.00
2022-08-17T05:08:41.753Z,312.00
2022-08-17T05:09:41.731Z,316.00
2022-08-17T05:10:45.305Z,320.00
2022-08-17T05:11:44.997Z,324.00
2022-08-17T05:12:41.705Z,328.00
2022-08-17T05:13:41.721Z,328.00
2022-08-17T05:14:41.694Z,336.00
2022-08-17T05:15:44.744Z,336.00
2022-08-17T05:16:41.682Z,340.00
2022-08-17T05:17:41.700Z,344.00
2022-08-17T05:18:41.653Z,348.00
2022-08-17T05:19:41.645Z,348.00
2022-08-17T05:20:41.628Z,348.00
2022-08-17T05:21:41.612Z,344.00
2022-08-17T05:22:41.594Z,340.00
2022-08-17T05:23:42.713Z,348.00
2022-08-17T05:24:43.731Z,356.00
2022-08-17T05:25:41.635Z,388.00
2022-08-17T05:26:41.582Z,392.00
2022-08-17T05:27:41.550Z,364.00
2022-08-17T05:28:41.539Z,380.00
2022-08-17T05:29:41.561Z,396.00
2022-08-17T05:30:41.504Z,408.00
2022-08-17T05:31:41.510Z,396.00
2022-08-17T05:32:41.521Z,392.00
2022-08-17T05:33:46.146Z,396.00
2022-08-17T05:34:41.469Z,416.00
2022-08-17T05:35:41.478Z,428.00
2022-08-17T05:36:43.484Z,444.00
2022-08-17T05:37:41.454Z,448.00
2022-08-17T05:38:41.416Z,436.00
2022-08-17T05:39:41.470Z,444.00
2022-08-17T05:40:41.434Z,452.00
2022-08-17T05:41:41.400Z,456.00
2022-08-17T05:42:41.413Z,460.00
2022-08-17T05:43:41.373Z,460.00
2022-08-17T05:44:41.354Z,452.00
2022-08-17T05:45:54.896Z,444.00
2022-08-17T05:46:41.369Z,464.00
2022-08-17T05:47:41.326Z,444.00
2022-08-17T05:48:41.316Z,452.00
2022-08-17T05:49:41.308Z,440.00
2022-08-17T05:50:41.293Z,448.00
2022-08-17T05:51:41.286Z,448.00
2022-08-17T05:52:41.286Z,448.00
2022-08-17T05:53:41.273Z,444.00
2022-08-17T05:54:41.250Z,452.00
2022-08-17T05:55:41.278Z,456.00
2022-08-17T05:56:41.231Z,468.00
2022-08-17T05:57:43.604Z,464.00
2022-08-17T05:58:41.205Z,476.00
2022-08-17T05:59:41.272Z,476.00
2022-08-17T06:00:42.312Z,476.00
2022-08-17T06:01:41.286Z,472.00
2022-08-17T06:02:45.564Z,476.00
2022-08-17T06:03:41.192Z,488.00
2022-08-17T06:04:41.129Z,500.00
2022-08-17T06:05:41.201Z,504.00
2022-08-17T06:06:41.132Z,524.00
2022-08-17T06:07:41.126Z,532.00
2022-08-17T06:08:41.112Z,540.00
2022-08-17T06:09:41.084Z,552.00
2022-08-17T06:10:41.106Z,552.00
2022-08-17T06:11:41.103Z,560.00
2022-08-17T06:12:41.049Z,568.00
2022-08-17T06:13:41.050Z,568.00
2022-08-17T06:14:41.083Z,572.00
2022-08-17T06:15:41.043Z,552.00
2022-08-17T06:16:41.012Z,548.00
2022-08-17T06:17:40.997Z,580.00
2022-08-17T06:18:41.098Z,592.00
2022-08-17T06:19:41.232Z,608.00
2022-08-17T06:20:40.968Z,624.00
2022-08-17T06:21:40.995Z,644.00
2022-08-17T06:22:40.960Z,656.00
2022-08-17T06:23:40.928Z,664.00
2022-08-17T06:24:40.948Z,668.00
2022-08-17T06:25:41.529Z,688.00
2022-08-17T06:26:43.375Z,696.00
2022-08-17T06:27:40.908Z,700.00
2022-08-17T06:28:40.872Z,704.00
2022-08-17T06:29:41.045Z,716.00
2022-08-17T06:31:00.241Z,712.00
2022-08-17T06:31:40.854Z,760.00
2022-08-17T06:32:40.956Z,752.00
2022-08-17T06:33:41.594Z,744.00
2022-08-17T06:34:40.837Z,728.00
2022-08-17T06:35:40.823Z,732.00
2022-08-17T06:36:40.794Z,692.00
2022-08-17T06:37:40.785Z,728.00
2022-08-17T06:38:40.766Z,796.00
2022-08-17T06:39:40.930Z,804.00
2022-08-17T06:40:40.765Z,796.00
2022-08-17T06:41:40.785Z,808.00
2022-08-17T06:42:54.790Z,800.00
2022-08-17T06:43:42.379Z,804.00
2022-08-17T06:44:43.525Z,788.00
2022-08-17T06:45:40.733Z,828.00
2022-08-17T06:46:40.710Z,848.00
2022-08-17T06:47:40.690Z,840.00
2022-08-17T06:48:40.668Z,840.00
2022-08-17T06:49:40.695Z,832.00
2022-08-17T06:50:40.698Z,828.00
2022-08-17T06:51:40.648Z,832.00
2022-08-17T06:52:55.706Z,836.00
2022-08-17T06:53:40.615Z,848.00
2022-08-17T06:54:40.596Z,848.00
2022-08-17T06:55:40.637Z,840.00
2022-08-17T06:56:53.233Z,844.00
2022-08-17T06:57:40.602Z,848.00
2022-08-17T06:58:40.572Z,860.00
2022-08-17T06:59:54.955Z,868.00
2022-08-17T07:00:40.598Z,884.00
2022-08-17T07:01:40.647Z,900.00
2022-08-17T07:02:52.076Z,908.00
2022-08-17T07:03:40.534Z,920.00
2022-08-17T07:04:41.468Z,916.00
2022-08-17T07:05:40.500Z,912.00
2022-08-17T07:06:40.468Z,940.00
2022-08-17T07:07:40.463Z,956.00
2022-08-17T07:08:40.481Z,972.00
2022-08-17T07:09:40.989Z,976.00
2022-08-17T07:10:40.450Z,988.00
2022-08-17T07:11:40.594Z,988.00
2022-08-17T07:12:40.978Z,992.00
2022-08-17T07:13:40.399Z,984.00
2022-08-17T07:14:40.388Z,984.00
2022-08-17T07:15:40.480Z,940.00
2022-08-17T07:16:40.395Z,952.00
2022-08-17T07:17:47.263Z,924.00
2022-08-17T07:18:40.359Z,948.00
2022-08-17T07:19:40.404Z,928.00
2022-08-17T07:20:40.320Z,884.00
2022-08-17T07:21:40.333Z,876.00
2022-08-17T07:22:53.520Z,876.00
2022-08-17T07:23:40.324Z,900.00
2022-08-17T07:24:40.274Z,916.00
2022-08-17T07:25:40.425Z,920.00
2022-08-17T07:26:40.242Z,912.00
2022-08-17T07:27:40.247Z,840.00
2022-08-17T07:28:40.227Z,900.00
2022-08-17T07:29:40.224Z,928.00
2022-08-17T07:30:45.695Z,944.00
2022-08-17T07:31:40.247Z,948.00
2022-08-17T07:32:40.184Z,912.00
2022-08-17T07:33:40.168Z,896.00
2022-08-17T07:34:40.291Z,936.00
2022-08-17T07:35:41.433Z,944.00
2022-08-17T07:36:40.135Z,972.00
2022-08-17T07:37:40.147Z,972.00
2022-08-17T07:38:40.122Z,976.00
2022-08-17T07:40:15.215Z,992.00
2022-08-17T07:40:40.184Z,976.00
2022-08-17T07:41:53.310Z,984.00
2022-08-17T07:42:44.910Z,988.00
2022-08-17T07:43:40.107Z,1004.00
2022-08-17T07:44:40.047Z,984.00
2022-08-17T07:45:40.054Z,1000.00
2022-08-17T07:46:40.041Z,988.00
2022-08-17T07:47:40.083Z,980.00
2022-08-17T07:48:40.009Z,996.00
2022-08-17T07:49:40.014Z,1024.00
2022-08-17T07:50:39.985Z,1028.00
2022-08-17T07:51:40.028Z,1048.00
2022-08-17T07:52:51.932Z,1028.00
2022-08-17T07:53:40.073Z,1044.00
2022-08-17T07:54:39.949Z,1064.00
2022-08-17T07:55:39.939Z,1076.00
2022-08-17T07:56:39.919Z,1076.00
2022-08-17T07:57:39.932Z,1076.00
2022-08-17T07:58:39.906Z,1104.00
2022-08-17T07:59:43.307Z,1132.00
2022-08-17T08:00:39.911Z,1136.00
2022-08-17T08:01:42.060Z,1104.00
2022-08-17T08:02:40.578Z,1108.00
2022-08-17T08:03:39.866Z,1076.00
2022-08-17T08:05:50.390Z,1052.00
2022-08-17T08:06:39.829Z,1032.00
2022-08-17T08:07:39.831Z,1012.00
2022-08-17T08:08:39.876Z,1008.00
2022-08-17T08:09:39.817Z,948.00
2022-08-17T08:10:42.577Z,928.00
2022-08-17T08:11:44.111Z,896.00
2022-08-17T08:12:39.782Z,900.00
2022-08-17T08:13:39.739Z,912.00
2022-08-17T08:14:39.734Z,900.00
2022-08-17T08:15:39.752Z,908.00
2022-08-17T08:16:39.716Z,916.00
2022-08-17T08:17:39.710Z,924.00
2022-08-17T08:18:39.745Z,900.00
2022-08-17T08:19:39.737Z,876.00
2022-08-17T08:20:53.517Z,852.00
2022-08-17T08:21:39.669Z,856.00
2022-08-17T08:22:39.638Z,884.00
2022-08-17T08:23:39.638Z,876.00
2022-08-17T08:24:39.622Z,968.00
2022-08-17T08:25:39.685Z,1000.00
2022-08-17T08:26:39.601Z,1008.00
2022-08-17T08:27:39.590Z,1000.00
2022-08-17T08:28:39.572Z,1004.00
2022-08-17T08:29:39.610Z,984.00
2022-08-17T08:30:39.590Z,988.00
2022-08-17T08:31:42.353Z,984.00
2022-08-17T08:32:39.605Z,968.00
2022-08-17T08:33:39.532Z,972.00
2022-08-17T08:34:47.988Z,972.00
2022-08-17T08:35:39.525Z,968.00
2022-08-17T08:36:56.634Z,948.00
2022-08-17T08:37:42.940Z,948.00
2022-08-17T08:38:39.642Z,960.00
2022-08-17T08:39:39.540Z,988.00
2022-08-17T08:40:39.460Z,1000.00
2022-08-17T08:41:39.447Z,1000.00
2022-08-17T08:42:39.451Z,992.00
2022-08-17T08:43:39.443Z,984.00
2022-08-17T08:44:59.846Z,992.00
2022-08-17T08:45:39.453Z,1008.00
2022-08-17T08:46:39.394Z,948.00
2022-08-17T08:47:39.385Z,948.00
2022-08-17T08:48:53.639Z,952.00
2022-08-17T08:50:02.716Z,944.00
2022-08-17T08:50:39.433Z,948.00
2022-08-17T08:51:39.333Z,960.00
2022-08-17T08:52:39.331Z,988.00
2022-08-17T08:53:39.326Z,968.00
2022-08-17T08:54:39.371Z,964.00
2022-08-17T08:55:39.352Z,964.00
2022-08-17T08:56:39.316Z,964.00
2022-08-17T08:57:39.274Z,972.00
2022-08-17T08:58:41.697Z,972.00
2022-08-17T08:59:42.144Z,980.00
2022-08-17T09:00:39.283Z,980.00
2022-08-17T09:01:40.221Z,980.00
2022-08-17T09:02:39.231Z,984.00
2022-08-17T09:03:52.383Z,968.00
2022-08-17T09:05:10.023Z,988.00
2022-08-17T09:05:39.206Z,1004.00
2022-08-17T09:06:40.093Z,1008.00
2022-08-17T09:07:39.181Z,1020.00
2022-08-17T09:08:39.157Z,996.00
2022-08-17T09:09:39.151Z,1012.00
2022-08-17T09:10:39.147Z,1012.00
2022-08-17T09:12:02.062Z,1024.00
2022-08-17T09:12:39.131Z,1028.00
2022-08-17T09:13:39.113Z,1024.00
2022-08-17T09:14:47.133Z,1032.00
2022-08-17T09:15:39.127Z,1040.00
2022-08-17T09:16:39.101Z,1060.00
2022-08-17T09:17:39.621Z,1072.00
2022-08-17T09:19:03.327Z,1116.00
2022-08-17T09:19:39.128Z,1108.00
2022-08-17T09:20:39.030Z,1120.00
2022-08-17T09:21:39.069Z,1124.00
2022-08-17T09:22:39.020Z,1140.00
2022-08-17T09:23:39.019Z,1156.00
2022-08-17T09:24:38.994Z,1140.00
2022-08-17T09:25:38.987Z,1124.00
2022-08-17T09:26:39.010Z,1132.00
2022-08-17T09:27:38.976Z,1148.00
2022-08-17T09:28:38.960Z,1108.00
2022-08-17T09:29:38.996Z,1160.00
2022-08-17T09:30:38.936Z,1264.00
2022-08-17T09:31:48.150Z,1284.00
2022-08-17T09:32:38.989Z,1296.00
2022-08-17T09:33:38.889Z,1300.00
2022-08-17T09:34:38.957Z,1320.00
2022-08-17T09:35:38.866Z,1324.00
2022-08-17T09:36:38.885Z,1356.00
2022-08-17T09:37:38.844Z,1380.00
2022-08-17T09:38:38.906Z,1400.00
2022-08-17T09:39:38.887Z,1420.00
2022-08-17T09:40:38.828Z,1444.00
2022-08-17T09:41:38.817Z,1484.00
2022-08-17T09:42:38.900Z,1520.00
2022-08-17T09:43:38.809Z,1564.00
2022-08-17T09:44:38.793Z,1616.00
2022-08-17T09:45:38.756Z,1668.00
2022-08-17T09:46:38.962Z,1708.00
2022-08-17T09:47:39.433Z,1776.00
2022-08-17T09:48:38.807Z,1836.00
2022-08-17T09:49:38.758Z,1848.00
2022-08-17T09:50:55.299Z,1868.00
2022-08-17T09:51:38.701Z,1848.00
2022-08-17T09:52:38.702Z,1820.00
2022-08-17T09:53:38.687Z,1792.00
2022-08-17T09:54:40.118Z,1768.00
2022-08-17T09:55:38.744Z,1744.00
2022-08-17T09:56:43.735Z,1728.00
2022-08-17T09:57:38.644Z,1700.00
2022-08-17T09:58:38.627Z,1712.00
2022-08-17T09:59:38.889Z,1712.00
2022-08-17T10:00:39.125Z,1708.00
2022-08-17T10:01:38.693Z,1696.00
2022-08-17T10:02:38.621Z,1688.00
2022-08-17T10:03:38.576Z,1688.00
2022-08-17T10:04:39.682Z,1648.00
2022-08-17T10:05:38.550Z,1636.00
2022-08-17T10:06:38.645Z,1636.00
2022-08-17T10:07:38.547Z,1644.00
2022-08-17T10:08:38.554Z,1632.00
2022-08-17T10:09:38.517Z,1608.00
2022-08-17T10:10:38.505Z,1564.00
2022-08-17T10:11:38.490Z,1680.00
2022-08-17T10:12:38.496Z,1672.00
2022-08-17T10:13:38.514Z,1664.00
2022-08-17T10:14:44.422Z,1640.00
2022-08-17T10:15:38.487Z,1632.00
2022-08-17T10:16:38.434Z,1608.00
2022-08-17T10:17:38.429Z,1580.00
2022-08-17T10:18:38.635Z,1472.00
2022-08-17T10:19:38.419Z,1328.00
2022-08-17T10:20:38.382Z,1236.00
2022-08-17T10:21:38.364Z,1216.00
2022-08-17T10:22:38.416Z,1280.00
2022-08-17T10:23:38.455Z,1476.00
2022-08-17T10:24:38.348Z,1584.00
2022-08-17T10:25:54.060Z,1592.00
2022-08-17T10:26:40.517Z,1576.00
2022-08-17T10:27:38.331Z,1588.00
2022-08-17T10:28:38.495Z,1596.00
2022-08-17T10:29:49.200Z,1592.00
2022-08-17T10:30:38.293Z,1580.00
2022-08-17T10:31:38.265Z,1580.00
2022-08-17T10:32:38.259Z,1592.00
2022-08-17T10:33:38.296Z,1624.00
2022-08-17T10:34:41.019Z,1672.00
2022-08-17T10:35:39.117Z,1720.00
2022-08-17T10:36:38.259Z,1748.00
2022-08-17T10:37:38.252Z,1768.00
2022-08-17T10:38:38.212Z,1800.00
2022-08-17T10:39:38.268Z,1828.00
2022-08-17T10:40:38.176Z,1848.00
2022-08-17T10:41:40.433Z,1872.00
2022-08-17T10:42:38.166Z,1828.00
2022-08-17T10:43:38.179Z,1824.00
2022-08-17T10:44:41.259Z,1764.00
2022-08-17T10:45:38.141Z,1720.00
2022-08-17T10:46:38.119Z,1744.00
2022-08-17T10:47:52.847Z,1672.00
2022-08-17T10:48:38.107Z,1660.00
2022-08-17T10:49:38.223Z,1656.00
2022-08-17T10:50:38.122Z,1664.00
2022-08-17T10:51:38.109Z,1756.00
2022-08-17T10:52:38.058Z,1944.00
2022-08-17T10:53:38.037Z,2128.00
2022-08-17T10:54:38.061Z,2104.00
2022-08-17T10:55:38.123Z,2072.00
2022-08-17T10:56:38.029Z,2048.00
2022-08-17T10:57:38.033Z,2008.00
2022-08-17T10:58:37.995Z,1996.00
2022-08-17T10:59:37.982Z,2032.00
2022-08-17T11:00:38.004Z,2060.00
2022-08-17T11:01:38.091Z,2036.00
2022-08-17T11:02:38.106Z,2008.00
2022-08-17T11:03:37.987Z,1880.00
2022-08-17T11:04:37.938Z,1892.00
2022-08-17T11:05:41.468Z,1912.00
2022-08-17T11:06:38.080Z,1908.00
2022-08-17T11:07:37.896Z,1960.00
2022-08-17T11:08:38.006Z,1996.00
2022-08-17T11:09:37.885Z,2052.00
2022-08-17T11:10:37.945Z,2132.00
2022-08-17T11:11:38.671Z,2120.00
2022-08-17T11:12:37.889Z,2108.00
2022-08-17T11:13:37.821Z,2040.00
2022-08-17T11:14:37.877Z,2084.00
2022-08-17T11:15:37.820Z,2028.00
2022-08-17T11:16:37.811Z,1952.00
2022-08-17T11:17:37.793Z,2016.00
2022-08-17T11:18:38.487Z,2344.00
2022-08-17T11:19:37.764Z,2464.00
2022-08-17T11:20:37.747Z,2496.00
2022-08-17T11:21:37.735Z,2920.00
2022-08-17T11:22:37.755Z,2860.00
2022-08-17T11:23:37.739Z,2544.00
2022-08-17T11:24:37.731Z,1956.00
2022-08-17T11:25:37.712Z,1944.00
2022-08-17T11:26:37.707Z,1996.00
2022-08-17T11:27:37.703Z,3276.00
2022-08-17T11:28:37.710Z,2680.00
2022-08-17T11:29:37.717Z,3560.00
2022-08-17T11:30:37.650Z,2644.00
2022-08-17T11:31:38.487Z,2548.00
2022-08-17T11:32:37.634Z,2568.00
2022-08-17T11:33:38.298Z,2628.00
2022-08-17T11:34:37.612Z,3084.00
2022-08-17T11:35:37.619Z,4364.00
2022-08-17T11:36:37.581Z,4608.00
2022-08-17T11:37:37.584Z,3604.00
2022-08-17T11:38:37.571Z,5576.00
2022-08-17T11:39:37.629Z,4724.00
2022-08-17T11:40:37.597Z,5716.00
2022-08-17T11:41:37.533Z,5072.00
2022-08-17T11:42:37.528Z,4444.00
2022-08-17T11:43:42.661Z,3728.00
2022-08-17T11:44:37.723Z,3492.00
2022-08-17T11:45:37.533Z,4184.00
2022-08-17T11:46:37.486Z,3424.00
2022-08-17T11:47:37.476Z,5332.00
2022-08-17T11:48:37.453Z,6828.00
2022-08-17T11:49:37.447Z,7224.00
2022-08-17T11:50:37.504Z,7160.00
2022-08-17T11:51:37.437Z,7280.00
2022-08-17T11:52:37.422Z,5356.00
2022-08-17T11:53:38.191Z,4128.00
2022-08-17T11:54:37.405Z,5360.00
2022-08-17T11:55:41.734Z,5048.00
2022-08-17T11:56:37.389Z,5072.00
2022-08-17T11:57:37.632Z,2908.00
2022-08-17T11:58:37.431Z,7888.00
2022-08-17T11:59:37.366Z,8052.00
2022-08-17T12:00:37.355Z,5772.00
2022-08-17T12:01:37.380Z,5804.00
2022-08-17T12:02:37.328Z,7984.00
2022-08-17T12:03:37.337Z,8680.00
2022-08-17T12:04:37.321Z,9124.00
2022-08-17T12:05:37.287Z,9212.00
2022-08-17T12:06:37.267Z,9376.00
2022-08-17T12:07:37.282Z,9556.00
2022-08-17T12:08:37.309Z,9564.00
2022-08-17T12:09:37.251Z,9732.00
2022-08-17T12:10:37.454Z,10028.00
2022-08-17T12:11:55.661Z,9996.00
2022-08-17T12:12:37.333Z,10160.00
2022-08-17T12:13:39.496Z,10080.00
2022-08-17T12:15:08.532Z,9772.00
2022-08-17T12:15:37.201Z,4732.00
2022-08-17T12:16:37.169Z,9220.00
2022-08-17T12:17:40.467Z,4408.00
2022-08-17T12:18:37.154Z,5120.00
2022-08-17T12:19:37.202Z,10264.00
2022-08-17T12:20:37.647Z,7516.00
2022-08-17T12:21:37.148Z,11728.00
2022-08-17T12:22:37.113Z,11328.00
2022-08-17T12:23:37.116Z,12240.00
2022-08-17T12:24:37.088Z,11524.00
2022-08-17T12:25:37.097Z,3512.00
2022-08-17T12:26:37.078Z,2580.00
2022-08-17T12:27:47.666Z,2244.00
2022-08-17T12:28:37.059Z,2000.00
2022-08-17T12:29:38.427Z,1848.00
2022-08-17T12:30:37.086Z,1804.00
2022-08-17T12:31:37.051Z,1832.00
2022-08-17T12:32:37.021Z,1928.00
2022-08-17T12:33:37.019Z,2140.00
2022-08-17T12:34:37.006Z,2468.00
2022-08-17T12:35:36.984Z,2928.00
2022-08-17T12:36:36.996Z,10300.00